sensor_id;sensor_type;location;lat;lon;timestamp;P1;durP1;ratioP1;P2;durP2;ratioP2
78169;SDS011;67412;49.892;14.490;2024-03-08T00:01:13;28.77;;;10.98;;
78169;SDS011;67412;49.892;14.490;2024-03-08T00:03:39;26.15;;;11.02;;
78169;SDS011;67412;49.892;14.490;2024-03-08T00:06:05;22.30;;;9.80;;
78169;SDS011;67412;49.892;14.490;2024-03-08T00:08:31;23.58;;;10.13;;
78169;SDS011;67412;49.892;14.490;2024-03-08T00:10:56;30.92;;;10.30;;
78169;SDS011;67412;49.892;14.490;2024-03-08T00:13:21;26.15;;;10.70;;
78169;SDS011;67412;49.892;14.490;2024-03-08T00:15:47;28.55;;;11.02;;
78169;SDS011;67412;49.892;14.490;2024-03-08T00:18:12;27.67;;;10.45;;
78169;SDS011;67412;49.892;14.490;2024-03-08T00:20:37;24.58;;;10.30;;
78169;SDS011;67412;49.892;14.490;2024-03-08T00:23:03;27.88;;;9.70;;
78169;SDS011;67412;49.892;14.490;2024-03-08T00:25:28;24.95;;;9.68;;
78169;SDS011;67412;49.892;14.490;2024-03-08T00:27:54;25.63;;;10.73;;
78169;SDS011;67412;49.892;14.490;2024-03-08T00:30:22;26.33;;;10.15;;
78169;SDS011;67412;49.892;14.490;2024-03-08T00:32:48;29.98;;;10.70;;
78169;SDS011;67412;49.892;14.490;2024-03-08T00:35:14;27.25;;;9.75;;
78169;SDS011;67412;49.892;14.490;2024-03-08T00:37:40;28.65;;;11.07;;
78169;SDS011;67412;49.892;14.490;2024-03-08T00:40:06;23.63;;;9.00;;
78169;SDS011;67412;49.892;14.490;2024-03-08T00:42:34;24.30;;;8.98;;
78169;SDS011;67412;49.892;14.490;2024-03-08T00:44:59;28.10;;;9.23;;
78169;SDS011;67412;49.892;14.490;2024-03-08T00:47:25;31.52;;;10.63;;
78169;SDS011;67412;49.892;14.490;2024-03-08T00:49:50;27.45;;;10.10;;
78169;SDS011;67412;49.892;14.490;2024-03-08T00:52:16;25.77;;;9.88;;
78169;SDS011;67412;49.892;14.490;2024-03-08T00:54:43;25.55;;;9.35;;
78169;SDS011;67412;49.892;14.490;2024-03-08T00:57:08;24.73;;;9.32;;
78169;SDS011;67412;49.892;14.490;2024-03-08T00:59:34;27.67;;;10.27;;
78169;SDS011;67412;49.892;14.490;2024-03-08T01:01:59;26.98;;;9.63;;
78169;SDS011;67412;49.892;14.490;2024-03-08T01:04:25;24.77;;;8.38;;
78169;SDS011;67412;49.892;14.490;2024-03-08T01:06:53;25.65;;;9.93;;
78169;SDS011;67412;49.892;14.490;2024-03-08T01:09:21;25.40;;;9.18;;
78169;SDS011;67412;49.892;14.490;2024-03-08T01:11:47;21.48;;;9.07;;
78169;SDS011;67412;49.892;14.490;2024-03-08T01:14:12;26.35;;;9.52;;
78169;SDS011;67412;49.892;14.490;2024-03-08T01:16:37;22.13;;;8.60;;
78169;SDS011;67412;49.892;14.490;2024-03-08T01:19:02;20.80;;;7.50;;
78169;SDS011;67412;49.892;14.490;2024-03-08T01:21:28;20.92;;;9.32;;
78169;SDS011;67412;49.892;14.490;2024-03-08T01:23:54;24.00;;;8.43;;
78169;SDS011;67412;49.892;14.490;2024-03-08T01:26:19;24.58;;;8.57;;
78169;SDS011;67412;49.892;14.490;2024-03-08T01:28:44;28.73;;;8.82;;
78169;SDS011;67412;49.892;14.490;2024-03-08T01:31:09;23.95;;;8.07;;
78169;SDS011;67412;49.892;14.490;2024-03-08T01:33:35;23.30;;;8.15;;
78169;SDS011;67412;49.892;14.490;2024-03-08T01:36:00;24.73;;;9.43;;
78169;SDS011;67412;49.892;14.490;2024-03-08T01:38:26;24.42;;;9.00;;
78169;SDS011;67412;49.892;14.490;2024-03-08T01:40:51;24.13;;;8.98;;
78169;SDS011;67412;49.892;14.490;2024-03-08T01:45:52;23.98;;;9.13;;
78169;SDS011;67412;49.892;14.490;2024-03-08T01:48:17;21.95;;;7.95;;
78169;SDS011;67412;49.892;14.490;2024-03-08T01:50:44;22.33;;;8.25;;
78169;SDS011;67412;49.892;14.490;2024-03-08T01:53:10;26.52;;;9.15;;
78169;SDS011;67412;49.892;14.490;2024-03-08T01:55:40;24.02;;;8.98;;
78169;SDS011;67412;49.892;14.490;2024-03-08T01:58:06;24.40;;;9.45;;
78169;SDS011;67412;49.892;14.490;2024-03-08T02:00:35;20.70;;;8.00;;
78169;SDS011;67412;49.892;14.490;2024-03-08T02:03:01;23.23;;;8.63;;
78169;SDS011;67412;49.892;14.490;2024-03-08T02:05:27;31.75;;;9.50;;
78169;SDS011;67412;49.892;14.490;2024-03-08T02:07:53;23.98;;;8.43;;
78169;SDS011;67412;49.892;14.490;2024-03-08T02:10:19;19.42;;;8.05;;
78169;SDS011;67412;49.892;14.490;2024-03-08T02:12:45;27.60;;;8.52;;
78169;SDS011;67412;49.892;14.490;2024-03-08T02:15:11;25.88;;;9.07;;
78169;SDS011;67412;49.892;14.490;2024-03-08T02:17:37;24.55;;;8.45;;
78169;SDS011;67412;49.892;14.490;2024-03-08T02:20:03;24.45;;;8.95;;
78169;SDS011;67412;49.892;14.490;2024-03-08T02:22:30;26.58;;;8.82;;
78169;SDS011;67412;49.892;14.490;2024-03-08T02:27:26;27.95;;;8.88;;
78169;SDS011;67412;49.892;14.490;2024-03-08T02:29:52;25.60;;;9.15;;
78169;SDS011;67412;49.892;14.490;2024-03-08T02:32:21;25.40;;;9.95;;
78169;SDS011;67412;49.892;14.490;2024-03-08T02:34:47;28.38;;;9.07;;
78169;SDS011;67412;49.892;14.490;2024-03-08T02:37:12;23.23;;;9.43;;
78169;SDS011;67412;49.892;14.490;2024-03-08T02:39:38;29.83;;;9.68;;
78169;SDS011;67412;49.892;14.490;2024-03-08T02:42:03;24.35;;;9.20;;
78169;SDS011;67412;49.892;14.490;2024-03-08T02:44:28;22.42;;;8.27;;
78169;SDS011;67412;49.892;14.490;2024-03-08T02:46:54;22.40;;;8.52;;
78169;SDS011;67412;49.892;14.490;2024-03-08T02:49:20;23.27;;;8.68;;
78169;SDS011;67412;49.892;14.490;2024-03-08T02:51:46;21.98;;;9.20;;
78169;SDS011;67412;49.892;14.490;2024-03-08T02:54:11;22.00;;;8.10;;
78169;SDS011;67412;49.892;14.490;2024-03-08T02:56:36;23.63;;;9.02;;
78169;SDS011;67412;49.892;14.490;2024-03-08T02:59:02;21.55;;;7.88;;
78169;SDS011;67412;49.892;14.490;2024-03-08T03:01:27;21.65;;;8.02;;
78169;SDS011;67412;49.892;14.490;2024-03-08T03:03:53;20.50;;;7.75;;
78169;SDS011;67412;49.892;14.490;2024-03-08T03:06:18;22.33;;;7.90;;
78169;SDS011;67412;49.892;14.490;2024-03-08T03:08:46;21.33;;;7.95;;
78169;SDS011;67412;49.892;14.490;2024-03-08T03:11:11;23.75;;;8.77;;
78169;SDS011;67412;49.892;14.490;2024-03-08T03:13:38;21.45;;;7.68;;
78169;SDS011;67412;49.892;14.490;2024-03-08T03:16:04;21.13;;;7.10;;
78169;SDS011;67412;49.892;14.490;2024-03-08T03:18:30;16.65;;;7.90;;
78169;SDS011;67412;49.892;14.490;2024-03-08T03:20:57;20.17;;;7.22;;
78169;SDS011;67412;49.892;14.490;2024-03-08T03:23:23;23.25;;;8.02;;
78169;SDS011;67412;49.892;14.490;2024-03-08T03:25:48;18.52;;;6.55;;
78169;SDS011;67412;49.892;14.490;2024-03-08T03:28:14;18.77;;;7.60;;
78169;SDS011;67412;49.892;14.490;2024-03-08T03:30:44;18.38;;;7.13;;
78169;SDS011;67412;49.892;14.490;2024-03-08T03:33:11;20.25;;;7.03;;
78169;SDS011;67412;49.892;14.490;2024-03-08T03:35:37;18.88;;;6.88;;
78169;SDS011;67412;49.892;14.490;2024-03-08T03:38:03;20.52;;;6.38;;
78169;SDS011;67412;49.892;14.490;2024-03-08T03:40:34;19.30;;;6.70;;
78169;SDS011;67412;49.892;14.490;2024-03-08T03:43:00;19.40;;;7.20;;
78169;SDS011;67412;49.892;14.490;2024-03-08T03:45:26;12.40;;;4.90;;
78169;SDS011;67412;49.892;14.490;2024-03-08T03:47:52;17.38;;;6.43;;
78169;SDS011;67412;49.892;14.490;2024-03-08T03:50:18;16.30;;;6.00;;
78169;SDS011;67412;49.892;14.490;2024-03-08T03:52:44;15.65;;;6.05;;
78169;SDS011;67412;49.892;14.490;2024-03-08T03:55:13;15.95;;;6.65;;
78169;SDS011;67412;49.892;14.490;2024-03-08T03:57:39;20.67;;;7.88;;
78169;SDS011;67412;49.892;14.490;2024-03-08T04:00:05;22.55;;;7.90;;
78169;SDS011;67412;49.892;14.490;2024-03-08T04:02:31;20.38;;;7.40;;
78169;SDS011;67412;49.892;14.490;2024-03-08T04:04:56;18.08;;;6.93;;
78169;SDS011;67412;49.892;14.490;2024-03-08T04:07:22;17.13;;;6.00;;
78169;SDS011;67412;49.892;14.490;2024-03-08T04:09:47;21.33;;;6.85;;
78169;SDS011;67412;49.892;14.490;2024-03-08T04:12:12;20.00;;;6.65;;
78169;SDS011;67412;49.892;14.490;2024-03-08T04:14:41;19.00;;;7.45;;
78169;SDS011;67412;49.892;14.490;2024-03-08T04:17:07;17.45;;;6.38;;
78169;SDS011;67412;49.892;14.490;2024-03-08T04:19:34;20.65;;;7.18;;
78169;SDS011;67412;49.892;14.490;2024-03-08T04:22:00;18.95;;;6.50;;
78169;SDS011;67412;49.892;14.490;2024-03-08T04:24:26;22.30;;;7.22;;
78169;SDS011;67412;49.892;14.490;2024-03-08T04:26:51;12.50;;;5.25;;
78169;SDS011;67412;49.892;14.490;2024-03-08T04:29:17;23.08;;;7.90;;
78169;SDS011;67412;49.892;14.490;2024-03-08T04:31:42;19.52;;;7.38;;
78169;SDS011;67412;49.892;14.490;2024-03-08T04:34:07;25.10;;;7.22;;
78169;SDS011;67412;49.892;14.490;2024-03-08T04:36:33;20.85;;;6.75;;
78169;SDS011;67412;49.892;14.490;2024-03-08T04:38:59;27.30;;;8.25;;
78169;SDS011;67412;49.892;14.490;2024-03-08T04:41:24;20.02;;;6.88;;
78169;SDS011;67412;49.892;14.490;2024-03-08T04:43:50;21.73;;;7.97;;
78169;SDS011;67412;49.892;14.490;2024-03-08T04:46:15;20.35;;;7.22;;
78169;SDS011;67412;49.892;14.490;2024-03-08T04:48:41;22.38;;;7.75;;
78169;SDS011;67412;49.892;14.490;2024-03-08T04:51:08;16.48;;;6.13;;
78169;SDS011;67412;49.892;14.490;2024-03-08T04:53:34;18.80;;;7.20;;
78169;SDS011;67412;49.892;14.490;2024-03-08T04:55:59;21.08;;;7.32;;
78169;SDS011;67412;49.892;14.490;2024-03-08T04:58:25;17.60;;;6.40;;
78169;SDS011;67412;49.892;14.490;2024-03-08T05:00:50;23.35;;;7.53;;
78169;SDS011;67412;49.892;14.490;2024-03-08T05:03:16;20.70;;;7.15;;
78169;SDS011;67412;49.892;14.490;2024-03-08T05:05:41;19.55;;;6.78;;
78169;SDS011;67412;49.892;14.490;2024-03-08T05:08:07;20.58;;;6.57;;
78169;SDS011;67412;49.892;14.490;2024-03-08T05:10:32;20.98;;;7.22;;
78169;SDS011;67412;49.892;14.490;2024-03-08T05:12:57;21.40;;;7.00;;
78169;SDS011;67412;49.892;14.490;2024-03-08T05:15:23;20.25;;;8.13;;
78169;SDS011;67412;49.892;14.490;2024-03-08T05:17:48;26.88;;;9.10;;
78169;SDS011;67412;49.892;14.490;2024-03-08T05:20:14;20.38;;;7.90;;
78169;SDS011;67412;49.892;14.490;2024-03-08T05:22:42;22.48;;;8.40;;
78169;SDS011;67412;49.892;14.490;2024-03-08T05:25:08;19.67;;;7.13;;
78169;SDS011;67412;49.892;14.490;2024-03-08T05:27:34;19.73;;;7.57;;
78169;SDS011;67412;49.892;14.490;2024-03-08T05:30:01;20.95;;;7.63;;
78169;SDS011;67412;49.892;14.490;2024-03-08T05:32:29;20.63;;;7.45;;
78169;SDS011;67412;49.892;14.490;2024-03-08T05:34:54;20.45;;;7.32;;
78169;SDS011;67412;49.892;14.490;2024-03-08T05:37:19;16.77;;;6.25;;
78169;SDS011;67412;49.892;14.490;2024-03-08T05:39:45;19.73;;;7.28;;
78169;SDS011;67412;49.892;14.490;2024-03-08T05:42:11;20.27;;;6.72;;
78169;SDS011;67412;49.892;14.490;2024-03-08T05:44:36;23.40;;;8.63;;
78169;SDS011;67412;49.892;14.490;2024-03-08T05:47:01;22.00;;;7.43;;
78169;SDS011;67412;49.892;14.490;2024-03-08T05:49:26;21.33;;;6.93;;
78169;SDS011;67412;49.892;14.490;2024-03-08T05:51:52;19.60;;;6.68;;
78169;SDS011;67412;49.892;14.490;2024-03-08T05:54:19;19.63;;;6.30;;
78169;SDS011;67412;49.892;14.490;2024-03-08T05:56:47;21.80;;;7.13;;
78169;SDS011;67412;49.892;14.490;2024-03-08T05:59:12;22.70;;;7.72;;
78169;SDS011;67412;49.892;14.490;2024-03-08T06:01:38;22.80;;;7.18;;
78169;SDS011;67412;49.892;14.490;2024-03-08T06:04:05;20.05;;;7.47;;
78169;SDS011;67412;49.892;14.490;2024-03-08T06:06:31;21.80;;;7.88;;
78169;SDS011;67412;49.892;14.490;2024-03-08T06:08:56;21.35;;;7.45;;
78169;SDS011;67412;49.892;14.490;2024-03-08T06:11:23;19.27;;;6.85;;
78169;SDS011;67412;49.892;14.490;2024-03-08T06:13:51;24.60;;;7.95;;
78169;SDS011;67412;49.892;14.490;2024-03-08T06:16:17;21.67;;;7.85;;
78169;SDS011;67412;49.892;14.490;2024-03-08T06:18:42;22.40;;;7.72;;
78169;SDS011;67412;49.892;14.490;2024-03-08T06:21:08;21.52;;;7.57;;
78169;SDS011;67412;49.892;14.490;2024-03-08T06:23:41;23.60;;;7.38;;
78169;SDS011;67412;49.892;14.490;2024-03-08T06:26:09;22.45;;;8.10;;
78169;SDS011;67412;49.892;14.490;2024-03-08T06:28:34;28.00;;;8.45;;
78169;SDS011;67412;49.892;14.490;2024-03-08T06:31:00;23.95;;;8.40;;
78169;SDS011;67412;49.892;14.490;2024-03-08T06:33:25;27.10;;;9.02;;
78169;SDS011;67412;49.892;14.490;2024-03-08T06:35:56;30.88;;;9.95;;
78169;SDS011;67412;49.892;14.490;2024-03-08T06:38:25;31.50;;;11.15;;
78169;SDS011;67412;49.892;14.490;2024-03-08T06:40:50;39.03;;;11.57;;
78169;SDS011;67412;49.892;14.490;2024-03-08T06:43:16;32.17;;;11.57;;
78169;SDS011;67412;49.892;14.490;2024-03-08T06:45:43;32.50;;;12.27;;
78169;SDS011;67412;49.892;14.490;2024-03-08T06:48:13;28.67;;;9.65;;
78169;SDS011;67412;49.892;14.490;2024-03-08T06:50:42;26.67;;;9.27;;
78169;SDS011;67412;49.892;14.490;2024-03-08T06:53:11;30.40;;;9.48;;
78169;SDS011;67412;49.892;14.490;2024-03-08T06:55:37;27.20;;;10.70;;
78169;SDS011;67412;49.892;14.490;2024-03-08T06:58:02;27.50;;;9.18;;
78169;SDS011;67412;49.892;14.490;2024-03-08T07:00:28;30.15;;;9.85;;
78169;SDS011;67412;49.892;14.490;2024-03-08T07:05:20;23.10;;;8.02;;
78169;SDS011;67412;49.892;14.490;2024-03-08T07:07:46;23.90;;;8.23;;
78169;SDS011;67412;49.892;14.490;2024-03-08T07:10:13;22.25;;;7.68;;
78169;SDS011;67412;49.892;14.490;2024-03-08T07:12:40;21.55;;;8.52;;
78169;SDS011;67412;49.892;14.490;2024-03-08T07:15:08;21.33;;;7.45;;
78169;SDS011;67412;49.892;14.490;2024-03-08T07:17:38;24.23;;;8.55;;
78169;SDS011;67412;49.892;14.490;2024-03-08T07:20:04;23.67;;;8.73;;
78169;SDS011;67412;49.892;14.490;2024-03-08T07:22:32;24.38;;;9.30;;
78169;SDS011;67412;49.892;14.490;2024-03-08T07:24:57;18.70;;;7.20;;
78169;SDS011;67412;49.892;14.490;2024-03-08T07:27:43;26.98;;;8.27;;
78169;SDS011;67412;49.892;14.490;2024-03-08T07:30:09;16.73;;;6.82;;
78169;SDS011;67412;49.892;14.490;2024-03-08T07:32:37;20.65;;;7.35;;
78169;SDS011;67412;49.892;14.490;2024-03-08T07:35:03;25.38;;;8.93;;
78169;SDS011;67412;49.892;14.490;2024-03-08T07:37:28;22.55;;;7.80;;
78169;SDS011;67412;49.892;14.490;2024-03-08T07:39:54;26.88;;;8.52;;
78169;SDS011;67412;49.892;14.490;2024-03-08T07:42:19;23.63;;;8.20;;
78169;SDS011;67412;49.892;14.490;2024-03-08T07:44:46;21.98;;;8.48;;
78169;SDS011;67412;49.892;14.490;2024-03-08T07:47:13;28.90;;;9.68;;
78169;SDS011;67412;49.892;14.490;2024-03-08T07:49:39;20.73;;;8.15;;
78169;SDS011;67412;49.892;14.490;2024-03-08T07:52:04;23.45;;;7.60;;
78169;SDS011;67412;49.892;14.490;2024-03-08T07:54:32;21.80;;;8.27;;
78169;SDS011;67412;49.892;14.490;2024-03-08T07:56:57;22.15;;;7.90;;
78169;SDS011;67412;49.892;14.490;2024-03-08T07:59:22;23.95;;;8.70;;
78169;SDS011;67412;49.892;14.490;2024-03-08T08:01:48;23.15;;;8.45;;
78169;SDS011;67412;49.892;14.490;2024-03-08T08:04:13;20.80;;;7.85;;
78169;SDS011;67412;49.892;14.490;2024-03-08T08:06:39;20.70;;;7.93;;
78169;SDS011;67412;49.892;14.490;2024-03-08T08:09:08;24.30;;;8.00;;
78169;SDS011;67412;49.892;14.490;2024-03-08T08:11:53;18.48;;;5.97;;
78169;SDS011;67412;49.892;14.490;2024-03-08T08:14:18;21.15;;;7.43;;
78169;SDS011;67412;49.892;14.490;2024-03-08T08:16:46;20.95;;;6.88;;
78169;SDS011;67412;49.892;14.490;2024-03-08T08:19:13;19.45;;;7.35;;
78169;SDS011;67412;49.892;14.490;2024-03-08T08:21:39;20.27;;;7.53;;
78169;SDS011;67412;49.892;14.490;2024-03-08T08:24:05;18.13;;;6.45;;
78169;SDS011;67412;49.892;14.490;2024-03-08T08:26:31;22.02;;;8.27;;
78169;SDS011;67412;49.892;14.490;2024-03-08T08:28:57;20.00;;;7.43;;
78169;SDS011;67412;49.892;14.490;2024-03-08T08:31:23;21.27;;;7.35;;
78169;SDS011;67412;49.892;14.490;2024-03-08T08:33:48;19.02;;;7.25;;
78169;SDS011;67412;49.892;14.490;2024-03-08T08:36:14;16.42;;;6.78;;
78169;SDS011;67412;49.892;14.490;2024-03-08T08:38:39;21.10;;;7.28;;
78169;SDS011;67412;49.892;14.490;2024-03-08T08:41:07;18.98;;;6.93;;
78169;SDS011;67412;49.892;14.490;2024-03-08T08:43:34;20.73;;;7.80;;
78169;SDS011;67412;49.892;14.490;2024-03-08T08:45:59;20.58;;;7.32;;
78169;SDS011;67412;49.892;14.490;2024-03-08T08:48:24;18.45;;;6.95;;
78169;SDS011;67412;49.892;14.490;2024-03-08T08:50:50;21.92;;;8.38;;
78169;SDS011;67412;49.892;14.490;2024-03-08T08:55:43;19.95;;;6.65;;
78169;SDS011;67412;49.892;14.490;2024-03-08T08:58:10;20.42;;;7.45;;
78169;SDS011;67412;49.892;14.490;2024-03-08T09:00:36;21.40;;;9.10;;
78169;SDS011;67412;49.892;14.490;2024-03-08T09:03:01;19.50;;;7.90;;
78169;SDS011;67412;49.892;14.490;2024-03-08T09:05:27;18.20;;;6.80;;
78169;SDS011;67412;49.892;14.490;2024-03-08T09:07:52;18.92;;;6.22;;
78169;SDS011;67412;49.892;14.490;2024-03-08T09:10:18;19.00;;;6.80;;
78169;SDS011;67412;49.892;14.490;2024-03-08T09:12:43;17.75;;;6.38;;
78169;SDS011;67412;49.892;14.490;2024-03-08T09:15:10;15.55;;;5.90;;
78169;SDS011;67412;49.892;14.490;2024-03-08T09:17:38;15.25;;;6.05;;
78169;SDS011;67412;49.892;14.490;2024-03-08T09:20:08;18.75;;;6.47;;
78169;SDS011;67412;49.892;14.490;2024-03-08T09:22:35;17.25;;;6.88;;
78169;SDS011;67412;49.892;14.490;2024-03-08T09:25:00;16.73;;;6.35;;
78169;SDS011;67412;49.892;14.490;2024-03-08T09:27:27;18.77;;;6.88;;
78169;SDS011;67412;49.892;14.490;2024-03-08T09:29:53;18.75;;;7.95;;
78169;SDS011;67412;49.892;14.490;2024-03-08T09:32:19;17.08;;;7.10;;
78169;SDS011;67412;49.892;14.490;2024-03-08T09:34:45;20.08;;;7.75;;
78169;SDS011;67412;49.892;14.490;2024-03-08T09:37:10;19.42;;;6.70;;
78169;SDS011;67412;49.892;14.490;2024-03-08T09:39:36;21.67;;;7.90;;
78169;SDS011;67412;49.892;14.490;2024-03-08T09:42:01;20.48;;;8.52;;
78169;SDS011;67412;49.892;14.490;2024-03-08T09:44:27;19.15;;;7.03;;
78169;SDS011;67412;49.892;14.490;2024-03-08T09:46:54;18.23;;;7.18;;
78169;SDS011;67412;49.892;14.490;2024-03-08T09:49:20;16.58;;;6.75;;
78169;SDS011;67412;49.892;14.490;2024-03-08T09:51:45;18.27;;;6.85;;
78169;SDS011;67412;49.892;14.490;2024-03-08T09:54:12;17.88;;;7.22;;
78169;SDS011;67412;49.892;14.490;2024-03-08T09:56:37;19.15;;;7.60;;
78169;SDS011;67412;49.892;14.490;2024-03-08T09:59:06;19.75;;;7.47;;
78169;SDS011;67412;49.892;14.490;2024-03-08T10:01:50;19.08;;;7.90;;
78169;SDS011;67412;49.892;14.490;2024-03-08T10:04:17;19.42;;;7.20;;
78169;SDS011;67412;49.892;14.490;2024-03-08T10:06:43;17.88;;;7.78;;
78169;SDS011;67412;49.892;14.490;2024-03-08T10:09:13;18.50;;;7.60;;
78169;SDS011;67412;49.892;14.490;2024-03-08T10:11:39;18.73;;;7.40;;
78169;SDS011;67412;49.892;14.490;2024-03-08T10:14:05;21.42;;;7.78;;
78169;SDS011;67412;49.892;14.490;2024-03-08T10:16:32;21.08;;;7.78;;
78169;SDS011;67412;49.892;14.490;2024-03-08T10:18:59;17.02;;;7.20;;
78169;SDS011;67412;49.892;14.490;2024-03-08T10:21:25;17.88;;;6.38;;
78169;SDS011;67412;49.892;14.490;2024-03-08T10:23:50;19.25;;;7.72;;
78169;SDS011;67412;49.892;14.490;2024-03-08T10:26:16;21.30;;;7.40;;
78169;SDS011;67412;49.892;14.490;2024-03-08T10:28:46;21.02;;;8.07;;
78169;SDS011;67412;49.892;14.490;2024-03-08T10:33:42;16.58;;;6.55;;
78169;SDS011;67412;49.892;14.490;2024-03-08T10:36:07;19.92;;;7.00;;
78169;SDS011;67412;49.892;14.490;2024-03-08T10:38:36;19.23;;;7.82;;
78169;SDS011;67412;49.892;14.490;2024-03-08T10:41:05;19.42;;;7.72;;
78169;SDS011;67412;49.892;14.490;2024-03-08T10:43:32;20.50;;;7.82;;
78169;SDS011;67412;49.892;14.490;2024-03-08T10:46:06;18.83;;;8.43;;
78169;SDS011;67412;49.892;14.490;2024-03-08T10:48:57;21.52;;;8.60;;
78169;SDS011;67412;49.892;14.490;2024-03-08T10:51:28;19.00;;;8.15;;
78169;SDS011;67412;49.892;14.490;2024-03-08T10:53:54;21.13;;;7.78;;
78169;SDS011;67412;49.892;14.490;2024-03-08T10:56:22;16.92;;;6.80;;
78169;SDS011;67412;49.892;14.490;2024-03-08T10:58:47;20.33;;;8.75;;
78169;SDS011;67412;49.892;14.490;2024-03-08T11:01:14;18.70;;;7.57;;
78169;SDS011;67412;49.892;14.490;2024-03-08T11:06:05;18.17;;;7.73;;
78169;SDS011;67412;49.892;14.490;2024-03-08T11:08:39;19.88;;;7.68;;
78169;SDS011;67412;49.892;14.490;2024-03-08T11:11:04;18.63;;;8.20;;
78169;SDS011;67412;49.892;14.490;2024-03-08T11:16:10;16.25;;;6.68;;
78169;SDS011;67412;49.892;14.490;2024-03-08T11:18:37;19.15;;;7.70;;
78169;SDS011;67412;49.892;14.490;2024-03-08T11:21:03;15.35;;;6.82;;
78169;SDS011;67412;49.892;14.490;2024-03-08T11:23:37;17.27;;;7.30;;
78169;SDS011;67412;49.892;14.490;2024-03-08T11:26:09;17.50;;;6.55;;
78169;SDS011;67412;49.892;14.490;2024-03-08T11:28:43;15.77;;;6.40;;
78169;SDS011;67412;49.892;14.490;2024-03-08T11:33:39;17.85;;;6.90;;
78169;SDS011;67412;49.892;14.490;2024-03-08T11:36:12;16.27;;;6.63;;
78169;SDS011;67412;49.892;14.490;2024-03-08T11:38:41;17.70;;;6.65;;
78169;SDS011;67412;49.892;14.490;2024-03-08T11:41:13;17.92;;;6.13;;
78169;SDS011;67412;49.892;14.490;2024-03-08T11:43:42;17.20;;;6.70;;
78169;SDS011;67412;49.892;14.490;2024-03-08T11:46:08;8.80;;;3.80;;
78169;SDS011;67412;49.892;14.490;2024-03-08T11:48:34;16.27;;;6.32;;
78169;SDS011;67412;49.892;14.490;2024-03-08T11:51:03;14.63;;;6.03;;
78169;SDS011;67412;49.892;14.490;2024-03-08T11:53:30;20.33;;;5.40;;
78169;SDS011;67412;49.892;14.490;2024-03-08T11:56:05;10.40;;;3.42;;
78169;SDS011;67412;49.892;14.490;2024-03-08T11:58:36;12.52;;;4.30;;
78169;SDS011;67412;49.892;14.490;2024-03-08T12:01:05;12.48;;;3.72;;
78169;SDS011;67412;49.892;14.490;2024-03-08T12:03:42;14.80;;;5.00;;
78169;SDS011;67412;49.892;14.490;2024-03-08T12:06:07;14.27;;;5.10;;
78169;SDS011;67412;49.892;14.490;2024-03-08T12:08:36;11.40;;;4.65;;
78169;SDS011;67412;49.892;14.490;2024-03-08T12:11:05;11.52;;;4.70;;
78169;SDS011;67412;49.892;14.490;2024-03-08T12:13:31;12.57;;;4.82;;
78169;SDS011;67412;49.892;14.490;2024-03-08T12:15:59;15.07;;;5.18;;
78169;SDS011;67412;49.892;14.490;2024-03-08T12:18:35;11.43;;;4.45;;
78169;SDS011;67412;49.892;14.490;2024-03-08T12:21:09;11.80;;;5.07;;
78169;SDS011;67412;49.892;14.490;2024-03-08T12:23:37;12.02;;;5.15;;
78169;SDS011;67412;49.892;14.490;2024-03-08T12:26:13;10.00;;;4.40;;
78169;SDS011;67412;49.892;14.490;2024-03-08T12:28:41;11.32;;;4.43;;
78169;SDS011;67412;49.892;14.490;2024-03-08T12:31:09;13.32;;;4.88;;
78169;SDS011;67412;49.892;14.490;2024-03-08T12:34:00;10.90;;;4.57;;
78169;SDS011;67412;49.892;14.490;2024-03-08T12:36:23;11.88;;;4.70;;
78169;SDS011;67412;49.892;14.490;2024-03-08T12:38:49;10.82;;;4.15;;
78169;SDS011;67412;49.892;14.490;2024-03-08T12:41:15;11.48;;;4.55;;
78169;SDS011;67412;49.892;14.490;2024-03-08T12:43:42;11.68;;;4.30;;
78169;SDS011;67412;49.892;14.490;2024-03-08T12:46:13;10.18;;;4.25;;
78169;SDS011;67412;49.892;14.490;2024-03-08T12:48:51;9.63;;;3.42;;
78169;SDS011;67412;49.892;14.490;2024-03-08T12:51:18;12.25;;;4.90;;
78169;SDS011;67412;49.892;14.490;2024-03-08T12:53:45;12.00;;;4.47;;
78169;SDS011;67412;49.892;14.490;2024-03-08T12:56:11;12.32;;;4.25;;
78169;SDS011;67412;49.892;14.490;2024-03-08T12:58:37;11.02;;;3.72;;
78169;SDS011;67412;49.892;14.490;2024-03-08T13:01:04;12.63;;;4.20;;
78169;SDS011;67412;49.892;14.490;2024-03-08T13:03:33;9.02;;;3.17;;
78169;SDS011;67412;49.892;14.490;2024-03-08T13:06:00;11.27;;;3.92;;
78169;SDS011;67412;49.892;14.490;2024-03-08T13:08:27;9.73;;;3.70;;
78169;SDS011;67412;49.892;14.490;2024-03-08T13:10:54;7.82;;;2.92;;
78169;SDS011;67412;49.892;14.490;2024-03-08T13:13:20;8.13;;;3.55;;
78169;SDS011;67412;49.892;14.490;2024-03-08T13:15:45;9.35;;;3.13;;
78169;SDS011;67412;49.892;14.490;2024-03-08T13:18:10;7.47;;;2.80;;
78169;SDS011;67412;49.892;14.490;2024-03-08T13:20:36;10.55;;;3.28;;
78169;SDS011;67412;49.892;14.490;2024-03-08T13:23:05;7.75;;;2.80;;
78169;SDS011;67412;49.892;14.490;2024-03-08T13:25:33;8.35;;;3.13;;
78169;SDS011;67412;49.892;14.490;2024-03-08T13:27:58;8.90;;;3.00;;
78169;SDS011;67412;49.892;14.490;2024-03-08T13:32:51;9.98;;;3.05;;
78169;SDS011;67412;49.892;14.490;2024-03-08T13:35:18;7.70;;;2.60;;
78169;SDS011;67412;49.892;14.490;2024-03-08T13:37:49;9.60;;;2.90;;
78169;SDS011;67412;49.892;14.490;2024-03-08T13:40:14;6.18;;;2.53;;
78169;SDS011;67412;49.892;14.490;2024-03-08T13:42:43;7.88;;;2.92;;
78169;SDS011;67412;49.892;14.490;2024-03-08T13:45:09;8.25;;;3.20;;
78169;SDS011;67412;49.892;14.490;2024-03-08T13:47:39;7.82;;;3.00;;
78169;SDS011;67412;49.892;14.490;2024-03-08T13:50:06;11.18;;;3.55;;
78169;SDS011;67412;49.892;14.490;2024-03-08T13:52:33;9.60;;;3.33;;
78169;SDS011;67412;49.892;14.490;2024-03-08T13:57:25;7.97;;;2.75;;
78169;SDS011;67412;49.892;14.490;2024-03-08T14:02:17;10.07;;;3.60;;
78169;SDS011;67412;49.892;14.490;2024-03-08T14:04:42;9.65;;;3.17;;
78169;SDS011;67412;49.892;14.490;2024-03-08T14:07:08;10.23;;;3.97;;
78169;SDS011;67412;49.892;14.490;2024-03-08T14:09:34;9.55;;;3.63;;
78169;SDS011;67412;49.892;14.490;2024-03-08T14:12:05;9.55;;;3.92;;
78169;SDS011;67412;49.892;14.490;2024-03-08T14:14:34;9.75;;;3.20;;
78169;SDS011;67412;49.892;14.490;2024-03-08T14:17:02;10.95;;;4.28;;
78169;SDS011;67412;49.892;14.490;2024-03-08T14:19:29;10.73;;;4.00;;
78169;SDS011;67412;49.892;14.490;2024-03-08T14:21:56;11.88;;;4.03;;
78169;SDS011;67412;49.892;14.490;2024-03-08T14:24:24;10.65;;;3.85;;
78169;SDS011;67412;49.892;14.490;2024-03-08T14:26:49;11.13;;;3.63;;
78169;SDS011;67412;49.892;14.490;2024-03-08T14:29:15;9.75;;;3.65;;
78169;SDS011;67412;49.892;14.490;2024-03-08T14:31:40;9.38;;;3.42;;
78169;SDS011;67412;49.892;14.490;2024-03-08T14:34:08;11.52;;;3.80;;
78169;SDS011;67412;49.892;14.490;2024-03-08T14:36:34;9.80;;;4.07;;
78169;SDS011;67412;49.892;14.490;2024-03-08T14:38:59;11.48;;;4.18;;
78169;SDS011;67412;49.892;14.490;2024-03-08T14:41:25;11.07;;;3.65;;
78169;SDS011;67412;49.892;14.490;2024-03-08T14:43:51;11.95;;;4.05;;
78169;SDS011;67412;49.892;14.490;2024-03-08T14:46:21;11.02;;;3.95;;